Time;durP1;ratioP1;P1;durP2;ratioP2;P2;SDS_P1;SDS_P2;PMS_P1;PMS_P2;Temp;Humidity;BMP_temperature;BMP_pressure;BME280_temperature;BME280_humidity;BME280_pressure;Samples;Min_cycle;Max_cycle;Signal;HPM_P1;HPM_P2
2024/03/19 00:00:42;;;;;;;10.32;6.50;;;12.30;99.90;;;;;;4155472;28;20033;-60
2024/03/19 00:02:42;;;;;;;8.32;6.13;;;12.30;99.90;;;;;;4153763;28;20076;-60
2024/03/19 00:04:43;;;;;;;9.57;6.43;;;12.30;99.90;;;;;;4158055;28;20042;-60
2024/03/19 00:06:44;;;;;;;10.13;6.20;;;12.30;99.90;;;;;;4156062;28;20125;-60
2024/03/19 00:08:44;;;;;;;9.75;6.10;;;12.30;99.90;;;;;;4158279;28;20116;-60
2024/03/19 00:10:45;;;;;;;9.45;6.10;;;12.40;99.90;;;;;;4155758;28;20545;-60
2024/03/19 00:12:45;;;;;;;13.90;6.70;;;12.30;99.90;;;;;;4158607;28;20041;-60
2024/03/19 00:14:46;;;;;;;14.85;6.95;;;12.30;99.90;;;;;;4157520;28;20489;-61
2024/03/19 00:16:47;;;;;;;11.38;6.85;;;12.30;99.90;;;;;;4156016;28;20088;-60
2024/03/19 00:18:47;;;;;;;13.35;7.60;;;12.30;99.90;;;;;;4157380;28;20030;-60
2024/03/19 00:20:48;;;;;;;12.52;7.75;;;12.30;99.90;;;;;;4160590;28;20395;-60
2024/03/19 00:22:49;;;;;;;10.48;6.20;;;12.40;99.90;;;;;;4162756;28;20033;-60
2024/03/19 00:24:49;;;;;;;9.95;6.15;;;12.40;99.90;;;;;;4160592;28;20040;-60
2024/03/19 00:26:50;;;;;;;11.55;6.05;;;12.30;99.90;;;;;;4159599;28;20406;-60
2024/03/19 00:28:51;;;;;;;7.90;5.35;;;12.30;99.90;;;;;;4159665;28;20034;-60
2024/03/19 00:30:52;;;;;;;9.70;5.82;;;12.40;99.90;;;;;;4157991;28;20029;-60
2024/03/19 00:32:53;;;;;;;10.75;5.88;;;12.40;99.90;;;;;;4159535;28;20099;-60
2024/03/19 00:34:53;;;;;;;8.05;4.82;;;12.30;99.90;;;;;;4160745;28;20109;-60
2024/03/19 00:36:54;;;;;;;10.00;5.72;;;12.40;99.90;;;;;;4161634;28;20049;-60
2024/03/19 00:38:55;;;;;;;8.38;5.20;;;12.30;99.90;;;;;;4160936;28;20487;-60
2024/03/19 00:40:55;;;;;;;9.75;5.38;;;12.40;99.90;;;;;;4159819;28;20136;-60
2024/03/19 00:42:56;;;;;;;6.88;4.72;;;12.40;99.90;;;;;;4162279;28;20053;-60
2024/03/19 00:44:58;;;;;;;8.50;4.97;;;12.40;99.90;;;;;;4161975;28;20025;-60
2024/03/19 00:46:59;;;;;;;7.63;4.85;;;12.40;99.90;;;;;;4158356;28;20057;-61
2024/03/19 00:49:01;;;;;;;8.15;5.10;;;12.40;99.90;;;;;;4160342;28;20045;-60
2024/03/19 00:51:02;;;;;;;9.73;5.40;;;12.40;99.90;;;;;;4160281;28;20033;-61
2024/03/19 00:53:02;;;;;;;9.48;5.97;;;12.40;99.90;;;;;;4161477;28;20111;-60
2024/03/19 00:55:04;;;;;;;10.27;5.95;;;12.40;99.90;;;;;;4160520;28;20029;-60
2024/03/19 00:57:04;;;;;;;8.52;5.75;;;12.40;99.90;;;;;;4160394;28;20053;-60
2024/03/19 00:59:05;;;;;;;8.80;5.32;;;12.40;99.90;;;;;;4160755;28;20394;-60
2024/03/19 01:01:06;;;;;;;9.23;5.43;;;12.40;99.90;;;;;;4158461;28;20120;-60
2024/03/19 01:03:08;;;;;;;8.57;5.47;;;12.40;99.90;;;;;;4160267;28;20479;-60
2024/03/19 01:05:11;;;;;;;8.25;5.70;;;12.40;99.90;;;;;;4160170;28;20053;-61
2024/03/19 01:07:11;;;;;;;9.57;5.18;;;12.40;99.90;;;;;;4159526;28;20436;-61
2024/03/19 01:09:12;;;;;;;11.35;4.97;;;12.40;99.90;;;;;;4159257;28;20099;-61
2024/03/19 01:11:13;;;;;;;8.70;5.45;;;12.40;99.90;;;;;;4151805;28;20508;-60
2024/03/19 01:13:13;;;;;;;8.15;5.32;;;12.30;99.90;;;;;;4156790;28;20060;-60
2024/03/19 01:15:14;;;;;;;8.70;5.60;;;12.30;99.90;;;;;;4154930;28;20125;-60
2024/03/19 01:17:14;;;;;;;9.27;6.00;;;12.40;99.90;;;;;;4156222;28;20103;-60
2024/03/19 01:19:15;;;;;;;10.52;6.13;;;12.30;99.90;;;;;;4160033;28;20081;-60
2024/03/19 01:21:16;;;;;;;10.30;5.88;;;12.30;99.90;;;;;;4156316;28;20048;-60
2024/03/19 01:23:16;;;;;;;9.60;5.90;;;12.30;99.90;;;;;;4161463;28;20260;-60
2024/03/19 01:25:17;;;;;;;9.20;5.65;;;12.30;99.90;;;;;;4159091;28;20458;-60
2024/03/19 01:27:18;;;;;;;8.50;5.70;;;12.30;99.90;;;;;;4160386;28;20041;-60
2024/03/19 01:29:18;;;;;;;10.70;6.72;;;12.30;99.90;;;;;;4160198;28;20508;-60
2024/03/19 01:31:19;;;;;;;12.18;6.05;;;12.30;99.90;;;;;;4158359;28;20125;-60
2024/03/19 01:33:20;;;;;;;11.15;6.90;;;12.30;99.90;;;;;;4161065;28;20056;-60
2024/03/19 01:35:21;;;;;;;11.90;7.22;;;12.30;99.90;;;;;;4141316;28;20038;-60
2024/03/19 01:37:22;;;;;;;12.18;7.30;;;12.30;99.90;;;;;;4161116;28;20064;-60
2024/03/19 01:39:22;;;;;;;12.23;7.15;;;12.20;99.90;;;;;;4156156;28;20076;-60
2024/03/19 01:41:23;;;;;;;12.95;7.10;;;12.20;99.90;;;;;;4159647;28;20425;-60
2024/03/19 01:43:23;;;;;;;12.25;7.45;;;12.20;99.90;;;;;;4161126;28;20108;-60
2024/03/19 01:45:24;;;;;;;11.02;6.93;;;12.20;99.90;;;;;;4159872;28;20398;-60
2024/03/19 01:47:24;;;;;;;11.40;7.32;;;12.20;99.90;;;;;;4161118;28;20040;-60
2024/03/19 01:49:25;;;;;;;11.75;7.47;;;12.20;99.90;;;;;;4159268;28;20041;-60
2024/03/19 01:51:26;;;;;;;10.50;7.40;;;12.20;99.90;;;;;;4160252;28;20040;-60
2024/03/19 01:53:27;;;;;;;15.02;8.45;;;12.20;99.90;;;;;;4160465;28;20471;-60
2024/03/19 01:55:28;;;;;;;14.25;9.13;;;12.10;99.90;;;;;;4159560;28;20034;-60
2024/03/19 01:57:29;;;;;;;15.25;8.50;;;12.10;99.90;;;;;;4159700;28;20532;-62
2024/03/19 01:59:30;;;;;;;14.27;8.82;;;12.10;99.90;;;;;;4159803;28;20033;-61
2024/03/19 02:01:31;;;;;;;14.05;8.35;;;12.10;99.90;;;;;;4159515;28;20041;-61
2024/03/19 02:03:32;;;;;;;15.98;8.82;;;12.00;99.90;;;;;;4160725;28;20044;-60
2024/03/19 02:05:32;;;;;;;13.88;8.27;;;12.00;99.90;;;;;;4159214;28;20526;-68
2024/03/19 02:07:34;;;;;;;13.15;8.02;;;12.00;99.90;;;;;;4159638;28;20404;-67
2024/03/19 02:09:34;;;;;;;13.93;8.68;;;12.00;99.90;;;;;;4159591;28;20448;-68
2024/03/19 02:11:36;;;;;;;16.13;9.40;;;12.00;99.90;;;;;;4159401;28;20038;-67
2024/03/19 02:13:37;;;;;;;11.55;7.97;;;12.00;99.90;;;;;;4160581;28;20129;-67
2024/03/19 02:15:37;;;;;;;12.45;7.85;;;12.00;99.90;;;;;;4159021;28;20486;-67
2024/03/19 02:17:38;;;;;;;11.90;7.80;;;12.00;99.90;;;;;;4158580;28;20044;-67
2024/03/19 02:19:38;;;;;;;14.13;7.43;;;11.90;99.90;;;;;;4155850;28;20033;-68
2024/03/19 02:21:39;;;;;;;12.48;7.40;;;11.90;99.90;;;;;;4159175;28;20104;-68
2024/03/19 02:23:41;;;;;;;15.25;7.18;;;11.90;99.90;;;;;;4159982;28;20049;-68
2024/03/19 02:25:41;;;;;;;15.13;7.70;;;11.90;99.90;;;;;;4158054;28;20461;-68
2024/03/19 02:27:43;;;;;;;14.95;8.38;;;11.90;99.90;;;;;;4158674;28;20041;-68
2024/03/19 02:29:45;;;;;;;14.38;8.27;;;11.90;99.90;;;;;;4152189;28;20107;-68
2024/03/19 02:31:45;;;;;;;14.52;8.45;;;11.90;99.90;;;;;;4154235;28;20033;-68
2024/03/19 02:33:46;;;;;;;12.70;8.13;;;11.90;99.90;;;;;;4155915;28;20500;-67
2024/03/19 02:35:46;;;;;;;14.23;8.52;;;11.90;99.90;;;;;;4158348;28;20052;-67
2024/03/19 02:37:47;;;;;;;11.88;8.00;;;11.90;99.90;;;;;;4159092;28;20038;-67
2024/03/19 02:39:47;;;;;;;13.20;7.80;;;11.90;99.90;;;;;;4159653;28;20171;-68
2024/03/19 02:41:48;;;;;;;14.05;8.32;;;11.90;99.90;;;;;;4158998;28;20026;-68
2024/03/19 02:43:49;;;;;;;14.30;8.38;;;11.80;99.90;;;;;;4159626;28;20049;-67
2024/03/19 02:45:50;;;;;;;12.00;8.40;;;11.90;99.90;;;;;;4157047;28;20029;-67
2024/03/19 02:47:50;;;;;;;14.90;7.68;;;11.90;99.90;;;;;;4157590;28;20025;-68
2024/03/19 02:49:51;;;;;;;10.70;7.85;;;11.90;99.90;;;;;;4159083;28;20049;-68
2024/03/19 02:51:51;;;;;;;12.82;7.35;;;11.90;99.90;;;;;;4158805;28;20033;-67
2024/03/19 02:53:52;;;;;;;14.82;8.57;;;11.90;99.90;;;;;;4160075;28;20044;-68
2024/03/19 02:55:53;;;;;;;12.60;7.43;;;11.90;99.90;;;;;;4158782;28;20037;-67
2024/03/19 02:57:54;;;;;;;10.32;6.63;;;11.90;99.90;;;;;;4159298;28;20052;-68
2024/03/19 02:59:54;;;;;;;11.98;7.38;;;11.90;99.90;;;;;;4159312;28;20556;-68
2024/03/19 03:01:56;;;;;;;13.82;8.48;;;11.90;99.90;;;;;;4156591;28;20150;-68
2024/03/19 03:03:56;;;;;;;11.13;7.70;;;11.90;99.90;;;;;;4159887;28;20043;-67
2024/03/19 03:05:57;;;;;;;10.60;7.10;;;11.80;99.90;;;;;;4157956;28;20042;-68
2024/03/19 03:07:58;;;;;;;10.88;7.05;;;11.90;99.90;;;;;;4158663;28;20083;-68
2024/03/19 03:09:58;;;;;;;13.02;7.43;;;11.90;99.90;;;;;;4158322;28;20057;-68
2024/03/19 03:11:59;;;;;;;11.88;7.10;;;11.90;99.90;;;;;;4158148;28;20042;-67
2024/03/19 03:13:59;;;;;;;10.38;6.40;;;11.90;99.90;;;;;;4158918;28;20128;-68
2024/03/19 03:16:00;;;;;;;9.50;6.53;;;11.90;99.90;;;;;;4157534;28;20474;-70
2024/03/19 03:18:01;;;;;;;11.80;6.95;;;11.90;99.90;;;;;;4158012;28;20030;-71
2024/03/19 03:20:01;;;;;;;10.70;6.63;;;11.90;99.90;;;;;;4157724;28;20038;-71
2024/03/19 03:22:02;;;;;;;14.45;7.93;;;11.90;99.90;;;;;;4156907;28;20155;-70
2024/03/19 03:24:03;;;;;;;11.68;7.50;;;11.90;99.90;;;;;;4159538;28;20026;-70
2024/03/19 03:26:04;;;;;;;14.63;7.95;;;11.90;99.90;;;;;;4158789;28;20038;-71
2024/03/19 03:28:04;;;;;;;10.70;7.40;;;11.90;99.90;;;;;;4156891;28;20056;-70
2024/03/19 03:30:08;;;;;;;12.88;8.02;;;11.90;99.90;;;;;;4158154;28;20037;-69
2024/03/19 03:32:09;;;;;;;12.23;7.47;;;11.90;99.90;;;;;;4154202;28;20478;-70
2024/03/19 03:34:10;;;;;;;10.07;7.13;;;11.90;99.90;;;;;;4159435;28;20038;-70
2024/03/19 03:36:11;;;;;;;14.00;6.90;;;11.90;99.90;;;;;;4157957;28;20044;-70
2024/03/19 03:38:11;;;;;;;12.10;7.65;;;11.90;99.90;;;;;;4157227;28;20045;-71
2024/03/19 03:40:18;;;;;;;13.48;7.47;;;11.90;99.90;;;;;;4157361;28;20049;-68
2024/03/19 03:42:19;;;;;;;11.40;7.40;;;11.90;99.90;;;;;;4158205;28;20095;-70
2024/03/19 03:44:20;;;;;;;13.48;7.80;;;11.90;99.90;;;;;;4154673;28;20037;-70
2024/03/19 03:46:20;;;;;;;11.35;7.32;;;11.90;99.90;;;;;;4157954;28;20557;-70
2024/03/19 03:48:21;;;;;;;13.48;7.88;;;11.90;99.90;;;;;;4158582;28;20387;-71
2024/03/19 03:50:21;;;;;;;11.85;7.15;;;11.90;99.90;;;;;;4157464;28;20084;-70
2024/03/19 03:52:22;;;;;;;12.73;7.57;;;11.90;99.90;;;;;;4158527;28;20038;-71
2024/03/19 03:54:23;;;;;;;14.77;7.38;;;11.80;99.90;;;;;;4159926;28;20496;-71
2024/03/19 03:56:24;;;;;;;10.00;6.47;;;11.80;99.90;;;;;;4158794;28;20037;-70
2024/03/19 03:58:24;;;;;;;13.82;6.53;;;11.80;99.90;;;;;;4156671;28;20040;-70
2024/03/19 04:00:25;;;;;;;14.07;6.97;;;11.80;99.90;;;;;;4157236;28;20561;-70
2024/03/19 04:02:26;;;;;;;13.02;6.55;;;11.80;99.90;;;;;;4159501;28;20083;-70
2024/03/19 04:04:26;;;;;;;11.13;6.43;;;11.70;99.90;;;;;;4155870;28;20045;-70
2024/03/19 04:06:27;;;;;;;10.43;6.85;;;11.70;99.90;;;;;;4156342;28;20120;-70
2024/03/19 04:08:27;;;;;;;13.77;7.35;;;11.70;99.90;;;;;;4155129;28;20029;-70
2024/03/19 04:10:28;;;;;;;11.45;7.25;;;11.70;99.90;;;;;;4159964;28;20044;-70
2024/03/19 04:12:30;;;;;;;12.13;7.50;;;11.70;99.90;;;;;;4160808;28;20486;-70
2024/03/19 04:14:31;;;;;;;11.35;7.20;;;11.60;99.90;;;;;;4159987;28;20041;-70
2024/03/19 04:16:32;;;;;;;14.00;7.20;;;11.60;99.90;;;;;;4160261;28;20114;-70
2024/03/19 04:18:32;;;;;;;12.40;7.05;;;11.60;99.90;;;;;;4159812;28;20045;-69
2024/03/19 04:20:33;;;;;;;14.38;7.18;;;11.60;99.90;;;;;;4158857;28;20037;-70
2024/03/19 04:22:35;;;;;;;18.90;7.85;;;11.50;99.90;;;;;;4160875;28;20070;-70
2024/03/19 04:24:36;;;;;;;10.47;7.37;;;11.50;99.90;;;;;;4159241;28;20051;-60
2024/03/19 04:26:38;;;;;;;11.82;7.80;;;11.50;99.90;;;;;;4161159;28;20433;-67
2024/03/19 04:28:38;;;;;;;10.20;6.72;;;11.50;99.90;;;;;;4159118;28;20497;-67
2024/03/19 04:30:39;;;;;;;11.02;7.00;;;11.50;99.90;;;;;;4158144;28;20067;-67
2024/03/19 04:32:40;;;;;;;11.38;6.80;;;11.40;99.90;;;;;;4160661;28;20030;-67
2024/03/19 04:34:41;;;;;;;11.65;6.85;;;11.40;99.90;;;;;;4161352;28;20628;-67
2024/03/19 04:36:41;;;;;;;12.55;7.47;;;11.40;99.90;;;;;;4160288;28;20036;-67
2024/03/19 04:38:42;;;;;;;13.23;7.38;;;11.50;99.90;;;;;;4159843;28;20055;-67
2024/03/19 04:40:42;;;;;;;12.93;6.90;;;11.40;99.90;;;;;;4157036;28;20063;-68
2024/03/19 04:42:43;;;;;;;13.48;7.95;;;11.40;99.90;;;;;;4188963;28;20047;-68
2024/03/19 04:44:44;;;;;;;11.48;7.03;;;11.30;99.90;;;;;;4157351;28;20033;-67
2024/03/19 04:46:45;;;;;;;13.02;7.28;;;11.30;99.90;;;;;;4158345;28;20041;-67
2024/03/19 04:48:45;;;;;;;13.52;7.30;;;11.30;99.90;;;;;;4159798;28;20053;-67
2024/03/19 04:50:46;;;;;;;9.63;6.68;;;11.30;99.90;;;;;;4159465;28;20053;-67
2024/03/19 04:52:47;;;;;;;11.32;6.70;;;11.40;99.90;;;;;;4161192;28;20037;-67
2024/03/19 04:54:47;;;;;;;12.02;7.10;;;11.30;99.90;;;;;;4158856;28;20036;-67
2024/03/19 04:56:48;;;;;;;12.40;7.10;;;11.30;99.90;;;;;;4159718;28;20060;-67
2024/03/19 04:58:50;;;;;;;12.32;6.65;;;11.30;99.90;;;;;;4158865;28;20120;-67
2024/03/19 05:00:52;;;;;;;13.75;7.25;;;11.30;99.90;;;;;;4158294;28;20026;-67
2024/03/19 05:02:52;;;;;;;13.57;7.00;;;11.30;99.90;;;;;;4158373;28;20124;-67
2024/03/19 05:04:53;;;;;;;11.82;6.60;;;11.30;99.90;;;;;;4157840;28;20103;-67
2024/03/19 05:06:54;;;;;;;12.68;6.90;;;11.30;99.90;;;;;;4159664;28;20033;-67
2024/03/19 05:08:54;;;;;;;9.52;6.30;;;11.30;99.90;;;;;;4154316;28;20072;-67
2024/03/19 05:10:55;;;;;;;13.10;7.63;;;11.30;99.90;;;;;;4150100;28;20033;-67
2024/03/19 05:12:55;;;;;;;10.40;6.88;;;11.30;99.90;;;;;;4160977;28;20037;-67
2024/03/19 05:14:56;;;;;;;13.77;7.05;;;11.30;99.90;;;;;;4158431;28;20037;-67
2024/03/19 05:16:57;;;;;;;10.25;6.63;;;11.30;99.90;;;;;;4159774;28;20552;-67
2024/03/19 05:18:57;;;;;;;12.73;6.65;;;11.30;99.90;;;;;;4156939;28;20040;-67
2024/03/19 05:20:58;;;;;;;11.70;6.50;;;11.30;99.90;;;;;;4153763;28;20034;-67
2024/03/19 05:22:58;;;;;;;14.13;6.90;;;11.30;99.90;;;;;;4160795;28;20470;-67
2024/03/19 05:24:59;;;;;;;9.75;6.68;;;11.30;99.90;;;;;;4161033;28;20033;-67
2024/03/19 05:27:00;;;;;;;11.85;6.85;;;11.30;99.90;;;;;;4154397;28;20409;-67
2024/03/19 05:29:01;;;;;;;11.73;6.90;;;11.30;99.90;;;;;;4158098;28;20528;-67
2024/03/19 05:31:01;;;;;;;14.23;7.15;;;11.30;99.90;;;;;;4158989;28;20037;-67
2024/03/19 05:33:02;;;;;;;10.30;6.70;;;11.30;99.90;;;;;;4160453;28;20041;-67
2024/03/19 05:35:06;;;;;;;11.25;7.07;;;11.30;99.90;;;;;;4189927;28;20037;-61
2024/03/19 05:37:07;;;;;;;12.25;6.93;;;11.30;99.90;;;;;;4154996;28;20030;-68
2024/03/19 05:39:08;;;;;;;10.95;6.50;;;11.30;99.90;;;;;;4158474;28;20041;-67
2024/03/19 05:41:12;;;;;;;11.82;6.97;;;11.30;99.90;;;;;;4157263;28;20469;-67
2024/03/19 05:43:12;;;;;;;11.02;7.35;;;11.30;99.90;;;;;;4157994;28;20557;-67
2024/03/19 05:45:13;;;;;;;11.40;6.93;;;11.30;99.90;;;;;;4157745;28;20049;-67
2024/03/19 05:47:15;;;;;;;14.20;7.15;;;11.30;99.90;;;;;;4157509;28;20045;-68
2024/03/19 05:49:16;;;;;;;11.80;7.25;;;11.30;99.90;;;;;;4187893;28;20040;-68
2024/03/19 05:51:17;;;;;;;10.90;7.07;;;11.30;99.90;;;;;;4159055;28;20045;-68
2024/03/19 05:53:18;;;;;;;12.93;7.00;;;11.30;99.90;;;;;;4158032;28;20176;-65
2024/03/19 05:55:18;;;;;;;13.07;7.47;;;11.30;99.90;;;;;;4157796;28;20042;-65
2024/03/19 05:57:19;;;;;;;11.70;7.03;;;11.30;99.90;;;;;;4158664;28;20536;-64
2024/03/19 05:59:19;;;;;;;13.98;7.32;;;11.30;99.90;;;;;;4156753;28;20578;-64
2024/03/19 06:01:20;;;;;;;12.15;7.35;;;11.30;99.90;;;;;;4157024;28;20037;-64
2024/03/19 06:03:20;;;;;;;13.15;6.95;;;11.30;99.90;;;;;;4154614;28;20034;-65
2024/03/19 06:05:21;;;;;;;11.60;7.35;;;11.30;99.90;;;;;;4154144;28;20407;-64
2024/03/19 06:07:21;;;;;;;11.70;7.32;;;11.30;99.90;;;;;;4157925;28;20069;-65
2024/03/19 06:09:22;;;;;;;11.25;6.88;;;11.30;99.90;;;;;;4157920;28;20037;-65
2024/03/19 06:11:23;;;;;;;11.88;7.38;;;11.30;99.90;;;;;;4156612;28;20033;-65
2024/03/19 06:13:24;;;;;;;11.75;7.25;;;11.30;99.90;;;;;;4154666;28;20528;-64
2024/03/19 06:15:26;;;;;;;16.88;8.00;;;11.30;99.90;;;;;;4155752;28;20033;-64
2024/03/19 06:17:27;;;;;;;12.40;7.35;;;11.30;99.90;;;;;;4156800;28;20034;-64
2024/03/19 06:19:27;;;;;;;12.25;7.25;;;11.30;99.90;;;;;;4156388;28;20037;-64
2024/03/19 06:21:28;;;;;;;17.13;7.95;;;11.30;99.90;;;;;;4157389;28;20038;-64
2024/03/19 06:23:28;;;;;;;10.95;7.75;;;11.30;99.90;;;;;;4155040;28;20034;-64
2024/03/19 06:25:29;;;;;;;18.17;8.73;;;11.30;99.90;;;;;;4159370;28;20564;-64
2024/03/19 06:27:30;;;;;;;12.27;7.88;;;11.30;99.90;;;;;;4157996;28;20486;-64
2024/03/19 06:29:30;;;;;;;11.98;8.05;;;11.30;99.90;;;;;;4158768;28;20037;-64
2024/03/19 06:31:31;;;;;;;13.27;7.28;;;11.30;99.90;;;;;;4154267;28;20119;-64
2024/03/19 06:33:32;;;;;;;12.48;7.28;;;11.30;99.90;;;;;;4152916;28;20125;-64
2024/03/19 06:35:33;;;;;;;13.57;8.40;;;11.30;99.90;;;;;;4154922;28;20029;-64
2024/03/19 06:37:34;;;;;;;16.13;9.50;;;11.30;99.90;;;;;;4151794;28;20033;-65
2024/03/19 06:39:34;;;;;;;14.95;8.43;;;11.20;99.90;;;;;;4151822;28;20140;-65
2024/03/19 06:41:35;;;;;;;18.13;9.35;;;11.20;99.90;;;;;;4151096;28;20042;-64
2024/03/19 06:43:36;;;;;;;27.58;15.80;;;11.20;99.90;;;;;;4147022;28;20040;-64
2024/03/19 06:45:37;;;;;;;26.80;16.10;;;11.20;99.90;;;;;;4153030;28;20147;-59
2024/03/19 06:47:38;;;;;;;24.40;14.10;;;11.20;99.90;;;;;;4158390;28;20085;-59
2024/03/19 06:49:38;;;;;;;24.92;14.25;;;11.20;99.90;;;;;;4158166;28;20021;-59
2024/03/19 06:51:39;;;;;;;22.67;13.45;;;11.20;99.90;;;;;;4154715;28;20152;-59
2024/03/19 06:53:40;;;;;;;23.25;13.68;;;11.20;99.90;;;;;;4152244;28;20053;-59
2024/03/19 06:55:41;;;;;;;24.67;14.32;;;11.20;99.90;;;;;;4151538;28;20049;-60
2024/03/19 06:57:42;;;;;;;26.17;15.15;;;11.30;99.90;;;;;;4152007;28;20067;-60
2024/03/19 06:59:43;;;;;;;28.05;14.88;;;11.20;99.90;;;;;;4151178;28;20044;-60
2024/03/19 07:01:43;;;;;;;21.63;14.32;;;11.20;99.90;;;;;;4147679;28;20522;-59
2024/03/19 07:03:45;;;;;;;23.55;14.82;;;11.20;99.90;;;;;;4152263;28;20076;-59
2024/03/19 07:05:45;;;;;;;22.30;14.18;;;11.20;99.90;;;;;;4154677;28;20077;-59
2024/03/19 07:07:46;;;;;;;19.58;13.38;;;11.30;99.90;;;;;;4157108;28;20037;-59
2024/03/19 07:09:48;;;;;;;20.25;13.50;;;11.30;99.90;;;;;;4152463;28;20050;-59
2024/03/19 07:11:48;;;;;;;21.13;13.43;;;11.30;99.90;;;;;;4147303;28;20042;-59
2024/03/19 07:13:49;;;;;;;19.23;12.45;;;11.30;99.90;;;;;;4150258;28;20083;-60
2024/03/19 07:15:50;;;;;;;15.38;10.52;;;11.40;99.90;;;;;;4153179;28;20406;-59
2024/03/19 07:17:51;;;;;;;14.43;9.50;;;11.30;99.90;;;;;;4152988;28;20037;-59
2024/03/19 07:19:54;;;;;;;13.37;9.03;;;11.40;99.90;;;;;;4150837;28;20044;-59
2024/03/19 07:21:54;;;;;;;17.23;9.75;;;11.40;99.90;;;;;;4168335;28;20296;-60
2024/03/19 07:23:55;;;;;;;16.27;8.88;;;11.40;99.90;;;;;;4153109;28;20350;-60
2024/03/19 07:25:56;;;;;;;13.82;9.10;;;11.40;99.90;;;;;;4152522;28;20750;-60
2024/03/19 07:27:57;;;;;;;16.38;9.27;;;11.40;99.90;;;;;;4155576;28;20073;-59
2024/03/19 07:29:58;;;;;;;12.65;7.97;;;11.40;99.90;;;;;;4168302;28;20037;-59
2024/03/19 07:31:59;;;;;;;13.57;8.85;;;11.40;99.90;;;;;;4153425;28;20043;-59
2024/03/19 07:33:59;;;;;;;13.05;8.18;;;11.40;99.90;;;;;;4152460;28;20045;-60
2024/03/19 07:36:00;;;;;;;14.82;8.40;;;11.40;99.90;;;;;;4151696;28;20041;-59
2024/03/19 07:38:00;;;;;;;14.90;7.68;;;11.40;99.90;;;;;;4154714;28;20132;-59
2024/03/19 07:40:03;;;;;;;13.55;8.18;;;11.40;99.90;;;;;;4153626;28;20110;-59
2024/03/19 07:42:04;;;;;;;11.60;7.85;;;11.40;99.90;;;;;;4151492;28;20441;-59
2024/03/19 07:44:05;;;;;;;10.85;6.47;;;11.40;99.90;;;;;;4151156;28;20076;-59
2024/03/19 07:46:05;;;;;;;10.80;6.70;;;11.40;99.90;;;;;;4152267;28;20064;-60
2024/03/19 07:48:06;;;;;;;11.63;6.88;;;11.40;99.90;;;;;;4154501;28;20087;-59
2024/03/19 07:50:07;;;;;;;10.40;6.68;;;11.40;99.90;;;;;;4152730;28;20080;-59
2024/03/19 07:52:08;;;;;;;12.90;7.22;;;11.40;99.90;;;;;;4154936;28;20428;-59
2024/03/19 07:54:09;;;;;;;12.35;7.53;;;11.40;99.90;;;;;;4154285;28;20045;-59
2024/03/19 07:56:10;;;;;;;12.20;7.70;;;11.40;99.90;;;;;;4148295;28;20109;-66
2024/03/19 07:58:11;;;;;;;11.27;6.93;;;11.40;99.90;;;;;;4149582;28;20261;-66
2024/03/19 08:00:14;;;;;;;12.13;6.18;;;11.40;99.90;;;;;;4143550;28;20049;-66
2024/03/19 08:02:14;;;;;;;10.70;6.50;;;11.30;99.90;;;;;;4147964;28;20401;-66
2024/03/19 08:04:15;;;;;;;11.15;6.85;;;11.40;99.90;;;;;;4147971;28;20061;-66
2024/03/19 08:06:16;;;;;;;13.77;6.78;;;11.40;99.90;;;;;;4151324;28;20064;-66
2024/03/19 08:08:16;;;;;;;13.35;6.63;;;11.40;99.90;;;;;;4151536;28;20042;-66
2024/03/19 08:10:18;;;;;;;12.63;7.28;;;11.40;99.90;;;;;;4151060;28;20389;-66
2024/03/19 08:12:19;;;;;;;12.27;6.68;;;11.40;99.90;;;;;;4150568;28;20046;-66
2024/03/19 08:14:20;;;;;;;13.82;6.70;;;11.40;99.90;;;;;;4154348;28;20053;-66
2024/03/19 08:16:21;;;;;;;15.63;6.50;;;11.40;99.90;;;;;;4153720;28;20850;-66
2024/03/19 08:18:22;;;;;;;11.15;6.05;;;11.40;99.90;;;;;;4154392;28;20472;-66
2024/03/19 08:20:23;;;;;;;14.10;6.53;;;11.40;99.90;;;;;;4153905;28;20049;-66
2024/03/19 08:22:24;;;;;;;12.60;6.22;;;11.40;99.90;;;;;;4152959;28;20060;-67
2024/03/19 08:24:24;;;;;;;9.80;5.95;;;11.40;99.90;;;;;;4153804;28;20088;-66
2024/03/19 08:26:25;;;;;;;12.25;5.93;;;11.40;99.90;;;;;;4151187;28;20080;-65
2024/03/19 08:28:26;;;;;;;9.88;5.88;;;11.40;99.90;;;;;;4153865;28;20507;-66
2024/03/19 08:30:26;;;;;;;15.70;6.43;;;11.50;99.90;;;;;;4152601;28;20569;-66
2024/03/19 08:32:27;;;;;;;10.10;5.55;;;11.50;99.90;;;;;;4152456;28;20530;-66
2024/03/19 08:34:28;;;;;;;11.20;5.97;;;11.50;99.90;;;;;;4152727;28;20049;-66
2024/03/19 08:36:29;;;;;;;13.10;5.85;;;11.50;99.90;;;;;;4152948;28;20057;-66
2024/03/19 08:38:31;;;;;;;9.45;5.45;;;11.50;99.90;;;;;;4151544;28;20030;-66
2024/03/19 08:40:33;;;;;;;15.25;6.97;;;11.60;99.90;;;;;;4153099;28;20237;-66
2024/03/19 08:42:34;;;;;;;12.55;6.60;;;11.70;99.90;;;;;;4158228;28;20037;-66
2024/03/19 08:44:35;;;;;;;10.80;5.88;;;11.70;99.90;;;;;;4158129;28;21446;-66
2024/03/19 08:46:35;;;;;;;10.82;6.57;;;11.70;99.90;;;;;;4157145;28;20072;-66
2024/03/19 08:48:36;;;;;;;8.23;5.35;;;11.80;99.90;;;;;;4157364;28;20040;-66
2024/03/19 08:50:36;;;;;;;16.38;6.50;;;11.80;99.90;;;;;;4154936;28;20041;-66
2024/03/19 08:52:38;;;;;;;13.48;7.07;;;11.80;99.90;;;;;;4156164;28;20481;-66
2024/03/19 08:54:40;;;;;;;13.37;6.90;;;11.80;99.90;;;;;;4156466;28;20052;-66
2024/03/19 08:56:41;;;;;;;11.35;6.82;;;11.80;99.90;;;;;;4156851;28;20164;-66
2024/03/19 08:58:43;;;;;;;13.57;7.05;;;11.90;99.90;;;;;;4157470;28;20375;-66
2024/03/19 09:00:43;;;;;;;12.30;6.60;;;12.00;99.90;;;;;;4155624;28;20038;-66
2024/03/19 09:02:44;;;;;;;15.18;7.22;;;12.00;99.90;;;;;;4154911;28;20380;-66
2024/03/19 09:04:45;;;;;;;13.90;6.55;;;12.10;99.90;;;;;;4156079;28;20049;-63
2024/03/19 09:06:46;;;;;;;10.02;6.07;;;12.10;99.90;;;;;;4155666;28;20108;-63
2024/03/19 09:08:47;;;;;;;12.40;6.68;;;12.20;99.90;;;;;;4156182;28;20154;-64
2024/03/19 09:10:50;;;;;;;12.30;6.82;;;12.30;99.90;;;;;;4155908;28;20045;-63
2024/03/19 09:12:50;;;;;;;;;;;12.30;99.90;;;;;;4158763;28;20397;-63
2024/03/19 09:14:51;;;;;;;13.32;6.82;;;12.40;99.90;;;;;;4155284;28;19921;-63
2024/03/19 09:16:51;;;;;;;12.10;6.25;;;12.40;99.90;;;;;;4155152;28;20076;-63
2024/03/19 09:18:52;;;;;;;14.95;6.07;;;12.50;99.90;;;;;;4157819;28;20092;-63
2024/03/19 09:20:52;;;;;;;16.05;6.72;;;12.60;99.90;;;;;;4155239;28;20073;-64
2024/03/19 09:22:53;;;;;;;12.68;6.43;;;12.60;99.90;;;;;;4156194;28;20067;-63
2024/03/19 09:24:54;;;;;;;12.32;6.07;;;12.70;99.90;;;;;;4151825;28;20405;-63
2024/03/19 09:26:54;;;;;;;13.05;6.50;;;12.70;99.90;;;;;;4156706;28;20580;-67
2024/03/19 09:28:56;;;;;;;10.57;5.95;;;12.80;99.90;;;;;;4158360;28;20099;-63
2024/03/19 09:31:00;;;;;;;12.32;6.55;;;12.80;99.90;;;;;;4155668;28;20029;-63
2024/03/19 09:33:02;;;;;;;16.63;6.63;;;12.80;99.90;;;;;;4156600;28;20037;-63
2024/03/19 09:35:04;;;;;;;16.20;6.67;;;12.90;99.90;;;;;;4156436;28;20128;-65
2024/03/19 09:37:04;;;;;;;18.67;6.55;;;13.00;99.90;;;;;;4154486;28;20276;-63
2024/03/19 09:39:10;;;;;;;15.93;6.45;;;13.00;99.90;;;;;;4157755;28;20048;-63
2024/03/19 09:41:12;;;;;;;14.68;6.88;;;13.00;99.90;;;;;;4155135;28;20436;-63
2024/03/19 09:43:21;;;;;;;10.70;6.07;;;13.00;99.90;;;;;;4155771;28;20543;-63
2024/03/19 09:45:28;;;;;;;10.68;5.88;;;13.00;99.90;;;;;;4152019;28;20710;-63
2024/03/19 09:47:31;;;;;;;11.43;5.57;;;13.10;99.90;;;;;;4153773;28;20042;-63
2024/03/19 09:49:32;;;;;;;10.45;5.82;;;13.10;99.90;;;;;;4156939;28;20045;-63
2024/03/19 09:51:37;;;;;;;11.00;5.70;;;13.10;99.90;;;;;;4154797;28;20502;-63
2024/03/19 09:53:39;;;;;;;15.68;6.07;;;13.10;99.90;;;;;;4153165;28;20055;-63
2024/03/19 09:55:40;;;;;;;13.07;5.88;;;13.10;99.90;;;;;;4156138;28;20450;-63
2024/03/19 09:57:46;;;;;;;11.13;5.40;;;13.20;99.90;;;;;;4152258;28;20041;-63
2024/03/19 09:59:48;;;;;;;13.02;6.22;;;13.20;99.90;;;;;;4154354;28;20045;-63
2024/03/19 10:01:49;;;;;;;12.97;6.87;;;13.20;99.90;;;;;;4155160;28;20052;-64
2024/03/19 10:03:51;;;;;;;13.15;5.82;;;13.20;99.90;;;;;;4156518;28;20065;-64
2024/03/19 10:05:51;;;;;;;9.80;5.38;;;13.20;99.90;;;;;;4151166;28;20497;-63
2024/03/19 10:07:56;;;;;;;15.52;6.32;;;13.30;99.90;;;;;;4152289;28;20034;-63
2024/03/19 10:09:56;;;;;;;10.85;5.90;;;13.30;99.90;;;;;;4157052;28;20061;-64
2024/03/19 10:12:00;;;;;;;11.77;5.90;;;13.30;99.90;;;;;;4153359;28;20049;-63
2024/03/19 10:14:01;;;;;;;15.18;6.88;;;13.40;99.90;;;;;;4156184;28;20091;-63
2024/03/19 10:16:02;;;;;;;13.35;6.53;;;13.50;99.90;;;;;;4156163;28;20686;-63
2024/03/19 10:18:06;;;;;;;13.40;5.85;;;13.50;99.90;;;;;;4156419;28;20037;-63
2024/03/19 10:20:11;;;;;;;14.48;5.90;;;13.60;99.90;;;;;;4152610;28;20151;-64
2024/03/19 10:22:12;;;;;;;12.18;5.82;;;13.60;99.90;;;;;;4138680;28;20042;-63